Genuine Hercules — 9V9468 — position and weather

sailwx.info

Track history (hours):
 
Tides and Currents Weather Stations Pressure Air Temp Water Temp Dewpoint Dewpoint Depression Visibility Wind Speed Wind Dir Waves Ship Positions

Genuine Hercules

Last reported at 2018-Feb-19 16:51 UTC. Time now 2018-Feb-22 03:18 UTC.
Position N 23°16' E 119°50'.

Length 171 m; draft 10.5 m.

Type: Ship (hazmat cat A). MMSI: 566851000.

Date/timePositionNaut miles runAvg speedWind from/ knotsBaromVisibWave heightAir tempDewpointWater temp
2018-Feb-19 16:51N 23°16' E 119°50'512.8
2018-Feb-19 16:28N 23°21' E 119°51'612.0
2018-Feb-19 15:58N 23°27' E 119°53'511.6
2018-Feb-19 15:30N 23°32' E 119°54'510.5
2018-Feb-19 15:00N 23°37' E 119°56'611.5
2018-Feb-19 14:30N 23°41' E 120°00'612.7
2018-Feb-19 14:00N 23°45' E 120°06'5 0.3
2018-Feb-19 00:16N 23°47' E 120°10'3 6.9
2018-Feb-18 23:52N 23°46' E 120°08'3 4.7
2018-Feb-18 23:12N 23°46' E 120°05'0 0.5
2018-Feb-18 22:57N 23°46' E 120°04'0 0.0
2018-Feb-18 16:27N 23°46' E 120°05'0 0.2
2018-Feb-18 16:00N 23°46' E 120°05'0 0.1
2018-Feb-18 15:30N 23°46' E 120°05'0 0.0
2018-Feb-18 15:00N 23°46' E 120°05'0 0.0
2018-Feb-18 14:30N 23°46' E 120°05'0 0.0
2018-Feb-18 14:00N 23°46' E 120°05'0 0.0
2018-Feb-18 13:21N 23°46' E 120°05'0 0.0
2018-Feb-18 13:00N 23°46' E 120°05'0 0.0
2018-Feb-18 11:12N 23°46' E 120°05'0 0.4
2018-Feb-18 10:57N 23°46' E 120°05'  
2018-Feb-14 04:51N 23°46' E 120°05'0 0.0
2018-Feb-14 04:27N 23°46' E 120°05'0 0.0
2018-Feb-14 04:00N 23°46' E 120°05'0 0.1
2018-Feb-14 03:24N 23°46' E 120°05'0 0.0
2018-Feb-14 02:57N 23°46' E 120°05'0 0.2
2018-Feb-14 02:27N 23°46' E 120°05'0 0.1
2018-Feb-14 02:00N 23°47' E 120°05'0 0.1
2018-Feb-14 01:27N 23°47' E 120°05'0 0.0
2018-Feb-14 01:00N 23°47' E 120°05'0 0.0
2018-Feb-14 00:30N 23°47' E 120°05'0 0.0
2018-Feb-14 00:00N 23°47' E 120°05'0 0.0
2018-Feb-13 23:30N 23°47' E 120°05'0 0.0
2018-Feb-13 23:00N 23°47' E 120°05'36 1.1
2018-Feb-12 14:05N 23°13' E 119°50'113.7
2018-Feb-12 13:59N 23°12' E 119°51'714.2
2018-Feb-12 13:30N 23°06' E 119°54'914.8
2018-Feb-12 12:56N 22°57' E 119°56'615.4
2018-Feb-12 12:30N 22°51' E 119°59'815.5
2018-Feb-12 12:00N 22°44' E 120°01'815.4
2018-Feb-12 11:30N 22°37' E 120°04'713.8
2018-Feb-12 11:00N 22°33' E 120°10'612.7
2018-Feb-12 10:30N 22°33' E 120°17'2 3.5
2018-Feb-12 10:00N 22°34' E 120°19'2 3.4
2018-Feb-12 09:30N 22°36' E 120°17'0 0.5
2018-Feb-12 09:00N 22°36' E 120°17'0 0.0
2018-Feb-12 08:27N 22°36' E 120°17'0 0.0
2018-Feb-12 08:00N 22°36' E 120°17'0 0.0
2018-Feb-12 07:30N 22°36' E 120°17'0 0.0
2018-Feb-12 07:00N 22°36' E 120°17'0 0.0
2018-Feb-12 06:30N 22°36' E 120°17'0 0.0
2018-Feb-12 06:00N 22°36' E 120°17'0 0.0
2018-Feb-12 05:30N 22°36' E 120°17'1 2.3
2018-Feb-12 05:00N 22°35' E 120°18'0 0.2
2018-Feb-12 04:30N 22°35' E 120°18'0 0.0
2018-Feb-12 04:00N 22°35' E 120°18'0 0.0
2018-Feb-12 03:30N 22°35' E 120°18'0 0.0
2018-Feb-12 03:00N 22°35' E 120°18'0 0.0
2018-Feb-12 02:30N 22°35' E 120°18'0 0.0
2018-Feb-12 02:00N 22°35' E 120°18'0 0.0
2018-Feb-12 01:27N 22°35' E 120°18'0 0.0
2018-Feb-12 00:57N 22°35' E 120°18'0 0.0
2018-Feb-12 00:30N 22°35' E 120°18'0 0.0
2018-Feb-12 00:00N 22°35' E 120°18'0 0.0
2018-Feb-11 23:30N 22°35' E 120°18'0 0.0
2018-Feb-11 23:00N 22°35' E 120°18'0 0.0
2018-Feb-11 22:30N 22°35' E 120°18'0 0.0
2018-Feb-11 22:00N 22°35' E 120°18'0 0.0
2018-Feb-11 21:30N 22°35' E 120°18'0 0.0
2018-Feb-11 21:00N 22°35' E 120°18'0 0.0
2018-Feb-11 20:30N 22°35' E 120°18'0 0.0
2018-Feb-11 20:00N 22°35' E 120°18'0 0.0
2018-Feb-11 19:27N 22°35' E 120°18'0 0.0
2018-Feb-11 19:00N 22°35' E 120°18'0 0.0
2018-Feb-11 18:30N 22°35' E 120°18'0 0.0
2018-Feb-11 18:00N 22°35' E 120°18'0 0.0
2018-Feb-11 17:30N 22°35' E 120°18'0 0.0
2018-Feb-11 17:00N 22°35' E 120°18'0 0.0
2018-Feb-11 16:30N 22°35' E 120°18'0 0.0
2018-Feb-11 15:57N 22°35' E 120°18'0 0.0
2018-Feb-11 15:30N 22°35' E 120°18'0 0.0
2018-Feb-11 15:00N 22°35' E 120°18'0 0.0
2018-Feb-11 14:30N 22°35' E 120°18'0 0.0
2018-Feb-11 14:00N 22°35' E 120°18'0 0.0
2018-Feb-11 13:30N 22°35' E 120°18'0 0.0
2018-Feb-11 13:00N 22°35' E 120°18'0 0.0
2018-Feb-11 12:30N 22°35' E 120°18'0 0.0
2018-Feb-11 12:00N 22°35' E 120°18'0 0.0
2018-Feb-11 11:30N 22°35' E 120°18'0 0.0
2018-Feb-11 11:00N 22°35' E 120°18'0 0.0
2018-Feb-11 10:30N 22°35' E 120°18'0 0.0
2018-Feb-11 09:57N 22°35' E 120°18'0 0.0
2018-Feb-11 09:30N 22°35' E 120°18'0 0.0
2018-Feb-11 09:00N 22°35' E 120°18'0 0.0
2018-Feb-11 08:30N 22°35' E 120°18'0 0.0
2018-Feb-11 08:00N 22°35' E 120°18'0 0.0
2018-Feb-11 07:30N 22°35' E 120°18'0 0.0
2018-Feb-11 06:57N 22°35' E 120°18'0 0.0
2018-Feb-11 06:30N 22°35' E 120°18'0 0.0
2018-Feb-11 06:00N 22°35' E 120°18'0 0.0
2018-Feb-11 05:30N 22°35' E 120°18'0 0.0
2018-Feb-11 05:00N 22°35' E 120°18'0 0.0
2018-Feb-11 04:30N 22°35' E 120°18'0 0.0
2018-Feb-11 04:00N 22°35' E 120°18'0 0.0
2018-Feb-11 03:30N 22°35' E 120°18'0 0.0
2018-Feb-11 03:00N 22°35' E 120°18'0 0.0
2018-Feb-11 02:30N 22°35' E 120°18'0 0.0
2018-Feb-11 02:00N 22°35' E 120°18'0 0.0
2018-Feb-11 01:30N 22°35' E 120°18'0 0.1
2018-Feb-11 01:00N 22°35' E 120°18'3 5.6
2018-Feb-11 00:30N 22°37' E 120°16'4 8.9
2018-Feb-11 00:00N 22°38' E 120°11'2 3.7
2018-Feb-10 23:30N 22°39' E 120°10'611.3
2018-Feb-10 23:00N 22°43' E 120°05'713.7
2018-Feb-10 22:30N 22°49' E 120°02'713.5
2018-Feb-10 22:00N 22°54' E 119°58'613.0
2018-Feb-10 21:30N 23°00' E 119°54'913.6
2018-Feb-10 20:53N 23°08' E 119°52'1212.7
2018-Feb-10 19:56N 23°20' E 119°50'613.4
2018-Feb-10 19:30N 23°26' E 119°51'713.4
2018-Feb-10 19:00N 23°32' E 119°52'714.2
2018-Feb-10 18:30N 23°39' E 119°55'  
Track history (hours):
 
Tides and Currents Weather Stations Pressure Air Temp Water Temp Dewpoint Dewpoint Depression Visibility Wind Speed Wind Dir Waves Ship Positions

Genuine Hercules

Last reported at 2018-Feb-19 16:51 UTC. Time now 2018-Feb-22 03:18 UTC.
Position N 23°16' E 119°50'.

Length 171 m; draft 10.5 m.

Type: Ship (hazmat cat A). MMSI: 566851000.

Date/timePositionNaut miles runAvg speedWind from/ knotsBaromVisibWave heightAir tempDewpointWater temp
2018-Feb-19 16:51N 23°16' E 119°50'512.8
2018-Feb-19 16:28N 23°21' E 119°51'612.0
2018-Feb-19 15:58N 23°27' E 119°53'511.6
2018-Feb-19 15:30N 23°32' E 119°54'510.5
2018-Feb-19 15:00N 23°37' E 119°56'611.5
2018-Feb-19 14:30N 23°41' E 120°00'612.7
2018-Feb-19 14:00N 23°45' E 120°06'5 0.3
2018-Feb-19 00:16N 23°47' E 120°10'3 6.9
2018-Feb-18 23:52N 23°46' E 120°08'3 4.7
2018-Feb-18 23:12N 23°46' E 120°05'0 0.5
2018-Feb-18 22:57N 23°46' E 120°04'0 0.0
2018-Feb-18 16:27N 23°46' E 120°05'0 0.2
2018-Feb-18 16:00N 23°46' E 120°05'0 0.1
2018-Feb-18 15:30N 23°46' E 120°05'0 0.0
2018-Feb-18 15:00N 23°46' E 120°05'0 0.0
2018-Feb-18 14:30N 23°46' E 120°05'0 0.0
2018-Feb-18 14:00N 23°46' E 120°05'0 0.0
2018-Feb-18 13:21N 23°46' E 120°05'0 0.0
2018-Feb-18 13:00N 23°46' E 120°05'0 0.0
2018-Feb-18 11:12N 23°46' E 120°05'0 0.4
2018-Feb-18 10:57N 23°46' E 120°05'  
2018-Feb-14 04:51N 23°46' E 120°05'0 0.0
2018-Feb-14 04:27N 23°46' E 120°05'0 0.0
2018-Feb-14 04:00N 23°46' E 120°05'0 0.1
2018-Feb-14 03:24N 23°46' E 120°05'0 0.0
2018-Feb-14 02:57N 23°46' E 120°05'0 0.2
2018-Feb-14 02:27N 23°46' E 120°05'0 0.1
2018-Feb-14 02:00N 23°47' E 120°05'0 0.1
2018-Feb-14 01:27N 23°47' E 120°05'0 0.0
2018-Feb-14 01:00N 23°47' E 120°05'0 0.0
2018-Feb-14 00:30N 23°47' E 120°05'0 0.0
2018-Feb-14 00:00N 23°47' E 120°05'0 0.0
2018-Feb-13 23:30N 23°47' E 120°05'0 0.0
2018-Feb-13 23:00N 23°47' E 120°05'36 1.1
2018-Feb-12 14:05N 23°13' E 119°50'113.7
2018-Feb-12 13:59N 23°12' E 119°51'714.2
2018-Feb-12 13:30N 23°06' E 119°54'914.8
2018-Feb-12 12:56N 22°57' E 119°56'615.4
2018-Feb-12 12:30N 22°51' E 119°59'815.5
2018-Feb-12 12:00N 22°44' E 120°01'815.4
2018-Feb-12 11:30N 22°37' E 120°04'713.8
2018-Feb-12 11:00N 22°33' E 120°10'612.7
2018-Feb-12 10:30N 22°33' E 120°17'2 3.5
2018-Feb-12 10:00N 22°34' E 120°19'2 3.4
2018-Feb-12 09:30N 22°36' E 120°17'0 0.5
2018-Feb-12 09:00N 22°36' E 120°17'0 0.0
2018-Feb-12 08:27N 22°36' E 120°17'0 0.0
2018-Feb-12 08:00N 22°36' E 120°17'0 0.0
2018-Feb-12 07:30N 22°36' E 120°17'0 0.0
2018-Feb-12 07:00N 22°36' E 120°17'0 0.0
2018-Feb-12 06:30N 22°36' E 120°17'0 0.0
2018-Feb-12 06:00N 22°36' E 120°17'0 0.0
2018-Feb-12 05:30N 22°36' E 120°17'1 2.3
2018-Feb-12 05:00N 22°35' E 120°18'0 0.2
2018-Feb-12 04:30N 22°35' E 120°18'0 0.0
2018-Feb-12 04:00N 22°35' E 120°18'0 0.0
2018-Feb-12 03:30N 22°35' E 120°18'0 0.0
2018-Feb-12 03:00N 22°35' E 120°18'0 0.0
2018-Feb-12 02:30N 22°35' E 120°18'0 0.0
2018-Feb-12 02:00N 22°35' E 120°18'0 0.0
2018-Feb-12 01:27N 22°35' E 120°18'0 0.0
2018-Feb-12 00:57N 22°35' E 120°18'0 0.0
2018-Feb-12 00:30N 22°35' E 120°18'0 0.0
2018-Feb-12 00:00N 22°35' E 120°18'0 0.0
2018-Feb-11 23:30N 22°35' E 120°18'0 0.0
2018-Feb-11 23:00N 22°35' E 120°18'0 0.0
2018-Feb-11 22:30N 22°35' E 120°18'0 0.0
2018-Feb-11 22:00N 22°35' E 120°18'0 0.0
2018-Feb-11 21:30N 22°35' E 120°18'0 0.0
2018-Feb-11 21:00N 22°35' E 120°18'0 0.0
2018-Feb-11 20:30N 22°35' E 120°18'0 0.0
2018-Feb-11 20:00N 22°35' E 120°18'0 0.0
2018-Feb-11 19:27N 22°35' E 120°18'0 0.0
2018-Feb-11 19:00N 22°35' E 120°18'0 0.0
2018-Feb-11 18:30N 22°35' E 120°18'0 0.0
2018-Feb-11 18:00N 22°35' E 120°18'0 0.0
2018-Feb-11 17:30N 22°35' E 120°18'0 0.0
2018-Feb-11 17:00N 22°35' E 120°18'0 0.0
2018-Feb-11 16:30N 22°35' E 120°18'0 0.0
2018-Feb-11 15:57N 22°35' E 120°18'0 0.0
2018-Feb-11 15:30N 22°35' E 120°18'0 0.0
2018-Feb-11 15:00N 22°35' E 120°18'0 0.0
2018-Feb-11 14:30N 22°35' E 120°18'0 0.0
2018-Feb-11 14:00N 22°35' E 120°18'0 0.0
2018-Feb-11 13:30N 22°35' E 120°18'0 0.0
2018-Feb-11 13:00N 22°35' E 120°18'0 0.0
2018-Feb-11 12:30N 22°35' E 120°18'0 0.0
2018-Feb-11 12:00N 22°35' E 120°18'0 0.0
2018-Feb-11 11:30N 22°35' E 120°18'0 0.0
2018-Feb-11 11:00N 22°35' E 120°18'0 0.0
2018-Feb-11 10:30N 22°35' E 120°18'0 0.0
2018-Feb-11 09:57N 22°35' E 120°18'0 0.0
2018-Feb-11 09:30N 22°35' E 120°18'0 0.0
2018-Feb-11 09:00N 22°35' E 120°18'0 0.0
2018-Feb-11 08:30N 22°35' E 120°18'0 0.0
2018-Feb-11 08:00N 22°35' E 120°18'0 0.0
2018-Feb-11 07:30N 22°35' E 120°18'0 0.0
2018-Feb-11 06:57N 22°35' E 120°18'0 0.0
2018-Feb-11 06:30N 22°35' E 120°18'0 0.0
2018-Feb-11 06:00N 22°35' E 120°18'0 0.0
2018-Feb-11 05:30N 22°35' E 120°18'0 0.0
2018-Feb-11 05:00N 22°35' E 120°18'0 0.0
2018-Feb-11 04:30N 22°35' E 120°18'0 0.0
2018-Feb-11 04:00N 22°35' E 120°18'0 0.0
2018-Feb-11 03:30N 22°35' E 120°18'0 0.0
2018-Feb-11 03:00N 22°35' E 120°18'0 0.0
2018-Feb-11 02:30N 22°35' E 120°18'0 0.0
2018-Feb-11 02:00N 22°35' E 120°18'0 0.0
2018-Feb-11 01:30N 22°35' E 120°18'0 0.1
2018-Feb-11 01:00N 22°35' E 120°18'3 5.6
2018-Feb-11 00:30N 22°37' E 120°16'4 8.9
2018-Feb-11 00:00N 22°38' E 120°11'2 3.7
2018-Feb-10 23:30N 22°39' E 120°10'611.3
2018-Feb-10 23:00N 22°43' E 120°05'713.7
2018-Feb-10 22:30N 22°49' E 120°02'713.5
2018-Feb-10 22:00N 22°54' E 119°58'613.0
2018-Feb-10 21:30N 23°00' E 119°54'913.6
2018-Feb-10 20:53N 23°08' E 119°52'1212.7
2018-Feb-10 19:56N 23°20' E 119°50'613.4
2018-Feb-10 19:30N 23°26' E 119°51'713.4
2018-Feb-10 19:00N 23°32' E 119°52'714.2
2018-Feb-10 18:30N 23°39' E 119°55'  

Dump ship's entire track history